Time;durP1;ratioP1;P1;durP2;ratioP2;P2;SDS_P1;SDS_P2;PMS_P1;PMS_P2;Temp;Humidity;BMP_temperature;BMP_pressure;BME280_temperature;BME280_humidity;BME280_pressure;Samples;Min_cycle;Max_cycle;Signal;HPM_P1;HPM_P2
2021/11/24 00:01:27;;;;;;;2.78;1.88;;;10.60;92.00;;;;;;5023971;28;20060;-78
2021/11/24 00:03:52;;;;;;;3.63;1.60;;;10.60;92.00;;;;;;5031568;28;20034;-78
2021/11/24 00:06:18;;;;;;;3.28;0.98;;;10.50;92.00;;;;;;5029199;28;20033;-78
2021/11/24 00:08:48;;;;;;;3.50;1.73;;;10.50;91.90;;;;;;5025901;28;20129;-78
2021/11/24 00:11:14;;;;;;;5.25;1.40;;;10.50;92.00;;;;;;5028841;28;20041;-78
2021/11/24 00:13:43;;;;;;;2.63;1.33;;;10.50;92.00;;;;;;5031126;28;20439;-78
2021/11/24 00:16:09;;;;;;;2.83;1.40;;;10.50;92.00;;;;;;5026265;28;20113;-78
2021/11/24 00:18:52;;;;;;;4.10;1.30;;;10.50;92.00;;;;;;5032325;28;20370;-78
2021/11/24 00:21:21;;;;;;;2.17;1.13;;;10.50;92.00;;;;;;5024771;28;20037;-79
2021/11/24 00:23:47;;;;;;;0.95;0.90;;;10.40;92.00;;;;;;5023188;28;20029;-79
2021/11/24 00:26:13;;;;;;;1.70;1.00;;;10.50;92.00;;;;;;5031923;28;20033;-78
2021/11/24 00:28:42;;;;;;;0.90;0.77;;;10.40;92.00;;;;;;5019853;28;20482;-79
2021/11/24 00:31:08;;;;;;;1.13;1.00;;;10.40;92.00;;;;;;5027719;28;20034;-78
2021/11/24 00:33:34;;;;;;;1.02;1.00;;;10.40;92.00;;;;;;5031774;28;20025;-79
2021/11/24 00:36:07;;;;;;;1.05;0.73;;;10.40;92.00;;;;;;5031293;28;20025;-78
2021/11/24 00:38:32;;;;;;;5.38;1.20;;;10.40;92.10;;;;;;5028657;28;20025;-79
2021/11/24 00:40:58;;;;;;;2.45;1.65;;;10.40;92.10;;;;;;5030545;28;20054;-78
2021/11/24 00:43:25;;;;;;;1.15;0.95;;;10.40;92.10;;;;;;5029603;28;20060;-78
2021/11/24 00:45:51;;;;;;;1.40;1.10;;;10.40;92.20;;;;;;5020983;28;20041;-78
2021/11/24 00:48:17;;;;;;;3.75;0.98;;;10.40;92.20;;;;;;5031512;28;20106;-78
2021/11/24 00:50:42;;;;;;;1.20;1.00;;;10.40;92.20;;;;;;5016086;28;20029;-78
2021/11/24 00:53:08;;;;;;;2.15;1.17;;;10.40;92.20;;;;;;5030960;28;20030;-78
2021/11/24 00:55:36;;;;;;;3.17;1.10;;;10.40;92.20;;;;;;5029803;28;20562;-78
2021/11/24 00:58:02;;;;;;;0.80;0.80;;;10.40;92.10;;;;;;5030835;28;20030;-78
2021/11/24 01:00:28;;;;;;;0.82;0.50;;;10.40;92.10;;;;;;5031437;28;20042;-78
2021/11/24 01:02:53;;;;;;;2.65;0.80;;;10.40;92.00;;;;;;5028468;28;20087;-79
2021/11/24 01:05:19;;;;;;;0.57;0.40;;;10.40;92.00;;;;;;5031388;28;20032;-78
2021/11/24 01:07:45;;;;;;;8.23;1.10;;;10.40;92.00;;;;;;5029525;28;20041;-79
2021/11/24 01:10:13;;;;;;;2.97;0.52;;;10.40;92.00;;;;;;5031400;28;20029;-78
2021/11/24 01:12:40;;;;;;;2.05;0.73;;;10.30;92.10;;;;;;5031179;28;20029;-79
2021/11/24 01:15:07;;;;;;;3.95;1.10;;;10.40;92.20;;;;;;5032235;28;20117;-79
2021/11/24 01:17:32;;;;;;;0.60;0.60;;;10.40;92.20;;;;;;5031659;28;20034;-77
2021/11/24 01:19:58;;;;;;;2.33;0.90;;;10.40;92.20;;;;;;5040241;28;20499;-79
2021/11/24 01:22:24;;;;;;;0.68;0.68;;;10.40;92.20;;;;;;5031090;28;20440;-79
2021/11/24 01:24:49;;;;;;;8.15;1.15;;;10.40;92.20;;;;;;5030595;28;20068;-79
2021/11/24 01:27:15;;;;;;;10.05;1.60;;;10.40;92.20;;;;;;5026088;28;20034;-78
2021/11/24 01:29:41;;;;;;;2.03;1.25;;;10.40;92.20;;;;;;5031816;28;20056;-78
2021/11/24 01:32:15;;;;;;;2.03;1.10;;;10.40;92.20;;;;;;5030090;28;20060;-78
2021/11/24 01:34:41;;;;;;;0.95;0.90;;;10.40;92.20;;;;;;5030268;28;20044;-78
2021/11/24 01:37:07;;;;;;;5.07;1.40;;;10.40;92.10;;;;;;5031844;28;20124;-78
2021/11/24 01:39:32;;;;;;;3.28;1.40;;;10.50;92.10;;;;;;5029030;28;20045;-78
2021/11/24 01:41:58;;;;;;;1.63;1.15;;;10.50;92.10;;;;;;5030248;28;20122;-79
2021/11/24 01:44:26;;;;;;;3.08;1.48;;;10.50;92.10;;;;;;5031212;28;20034;-78
2021/11/24 01:46:54;;;;;;;6.15;1.45;;;10.50;92.10;;;;;;5025330;28;20037;-78
2021/11/24 01:49:22;;;;;;;3.10;1.45;;;10.50;92.10;;;;;;5031384;28;20167;-78
2021/11/24 01:51:48;;;;;;;1.70;1.50;;;10.50;92.00;;;;;;5031461;28;20029;-78
2021/11/24 01:54:15;;;;;;;5.35;1.50;;;10.50;92.00;;;;;;5022792;28;20057;-78
2021/11/24 01:56:41;;;;;;;2.00;1.27;;;10.60;92.10;;;;;;5028156;28;20111;-78
2021/11/24 01:59:11;;;;;;;2.75;1.55;;;10.60;92.00;;;;;;5027340;28;20036;-78
2021/11/24 02:01:39;;;;;;;6.07;1.45;;;10.70;92.00;;;;;;5021033;28;20139;-78
2021/11/24 02:04:05;;;;;;;4.15;1.50;;;10.60;91.90;;;;;;5016294;28;20493;-78
2021/11/24 02:06:31;;;;;;;3.67;1.60;;;10.70;91.90;;;;;;5028870;28;20030;-78
2021/11/24 02:08:59;;;;;;;5.32;1.70;;;10.60;91.80;;;;;;5026019;28;20105;-78
2021/11/24 02:11:26;;;;;;;5.38;2.00;;;10.70;91.90;;;;;;5028468;28;20421;-79
2021/11/24 02:13:52;;;;;;;3.30;1.80;;;10.70;91.90;;;;;;5032542;28;20496;-78
2021/11/24 02:16:25;;;;;;;9.00;2.08;;;10.70;91.90;;;;;;5035241;28;20029;-77
2021/11/24 02:18:50;;;;;;;10.03;2.20;;;10.70;91.90;;;;;;5035116;28;20029;-78
2021/11/24 02:21:18;;;;;;;3.13;1.95;;;10.70;91.80;;;;;;5034029;28;20095;-78
2021/11/24 02:23:43;;;;;;;3.38;1.70;;;10.70;91.80;;;;;;5033019;28;20067;-78
2021/11/24 02:26:09;;;;;;;4.88;1.85;;;10.80;91.90;;;;;;5035768;28;20034;-77
2021/11/24 02:28:34;;;;;;;6.30;2.00;;;10.80;91.80;;;;;;5037786;28;20025;-78
2021/11/24 02:31:00;;;;;;;7.10;2.30;;;10.80;91.80;;;;;;5030725;28;20045;-78
2021/11/24 02:33:26;;;;;;;4.72;2.00;;;10.80;91.80;;;;;;5019251;28;20080;-78
2021/11/24 02:35:51;;;;;;;3.58;1.70;;;10.90;91.80;;;;;;5029702;28;20025;-78
2021/11/24 02:38:18;;;;;;;5.03;2.00;;;10.90;91.80;;;;;;5027817;28;20366;-78
2021/11/24 02:40:43;;;;;;;4.00;2.00;;;10.90;91.70;;;;;;5032364;28;20049;-78
2021/11/24 02:43:09;;;;;;;3.50;1.85;;;11.00;91.70;;;;;;5031833;28;20056;-78
2021/11/24 02:45:41;;;;;;;3.47;1.70;;;11.00;91.60;;;;;;5034041;28;20036;-78
2021/11/24 02:48:07;;;;;;;4.00;1.75;;;11.00;91.60;;;;;;5032872;28;20113;-78
2021/11/24 02:50:33;;;;;;;2.20;1.58;;;11.00;91.50;;;;;;5019368;28;20109;-77
2021/11/24 02:52:59;;;;;;;7.15;1.88;;;11.00;91.40;;;;;;5032609;28;20504;-77
2021/11/24 02:55:28;;;;;;;2.63;1.63;;;11.00;91.40;;;;;;5024295;28;20473;-78
2021/11/24 02:57:55;;;;;;;3.05;1.40;;;11.00;91.40;;;;;;5034506;28;20037;-78
2021/11/24 03:00:24;;;;;;;3.15;1.50;;;10.90;91.30;;;;;;5031460;28;20045;-78
2021/11/24 03:02:50;;;;;;;1.80;1.33;;;10.90;91.30;;;;;;5033568;28;20037;-78
2021/11/24 03:05:19;;;;;;;2.35;1.08;;;10.90;91.20;;;;;;5032850;28;20170;-78
2021/11/24 03:07:48;;;;;;;2.45;1.27;;;10.90;91.20;;;;;;5021807;28;20485;-78
2021/11/24 03:10:14;;;;;;;2.78;1.33;;;10.80;91.20;;;;;;5032065;28;20036;-79
2021/11/24 03:12:40;;;;;;;1.52;1.20;;;10.80;91.20;;;;;;5031846;28;20029;-78
2021/11/24 03:15:07;;;;;;;4.07;1.23;;;10.70;91.30;;;;;;5027853;28;20037;-78
2021/11/24 03:17:34;;;;;;;3.08;1.23;;;10.80;91.30;;;;;;5032396;28;20123;-78
2021/11/24 03:19:59;;;;;;;1.75;1.35;;;10.70;91.30;;;;;;5033258;28;20355;-78
2021/11/24 03:22:27;;;;;;;1.25;1.05;;;10.70;91.30;;;;;;5034032;28;20039;-78
2021/11/24 03:24:56;;;;;;;1.10;0.80;;;10.70;91.30;;;;;;5028056;28;20084;-78
2021/11/24 03:27:30;;;;;;;2.78;1.25;;;10.70;91.30;;;;;;5033013;28;20547;-78
2021/11/24 03:30:08;;;;;;;4.40;1.30;;;10.70;91.40;;;;;;5019724;28;20047;-78
2021/11/24 03:32:34;;;;;;;0.95;0.88;;;10.60;91.40;;;;;;5033116;28;20052;-78
2021/11/24 03:35:00;;;;;;;2.55;1.38;;;10.60;91.40;;;;;;5027626;28;20525;-78
2021/11/24 03:37:26;;;;;;;2.05;1.10;;;10.60;91.40;;;;;;5027371;28;20033;-78
2021/11/24 03:39:51;;;;;;;8.30;1.20;;;10.60;91.40;;;;;;5031645;28;20059;-78
2021/11/24 03:42:18;;;;;;;1.48;1.05;;;10.60;91.40;;;;;;5024964;28;20026;-79
2021/11/24 03:44:46;;;;;;;2.08;1.50;;;10.60;91.50;;;;;;5028595;28;20026;-78
2021/11/24 03:47:12;;;;;;;1.13;0.98;;;10.50;91.50;;;;;;5026850;28;20105;-77
2021/11/24 03:49:38;;;;;;;2.72;1.15;;;10.50;91.50;;;;;;5033045;28;20033;-78
2021/11/24 03:52:05;;;;;;;3.83;1.20;;;10.50;91.50;;;;;;5032685;28;20057;-77
2021/11/24 03:54:31;;;;;;;4.57;1.25;;;10.60;91.60;;;;;;5033217;28;20112;-78
2021/11/24 03:56:57;;;;;;;3.17;1.35;;;10.50;91.60;;;;;;5020779;28;20032;-78
2021/11/24 03:59:22;;;;;;;2.05;0.95;;;10.50;91.60;;;;;;5033324;28;20037;-77
2021/11/24 04:01:48;;;;;;;1.20;1.10;;;10.50;91.60;;;;;;5016775;28;20140;-78
2021/11/24 04:04:14;;;;;;;1.83;0.98;;;10.50;91.50;;;;;;5015968;28;20398;-78
2021/11/24 04:06:40;;;;;;;1.55;0.77;;;10.50;91.50;;;;;;5027276;28;20041;-78
2021/11/24 04:09:06;;;;;;;1.30;0.50;;;10.50;91.60;;;;;;5033251;28;20088;-79
2021/11/24 04:11:31;;;;;;;3.88;1.50;;;10.50;91.60;;;;;;5020708;28;20030;-78
2021/11/24 04:13:57;;;;;;;2.53;1.20;;;10.40;91.60;;;;;;5027773;28;20117;-78
2021/11/24 04:16:23;;;;;;;2.35;0.90;;;10.40;91.60;;;;;;5024936;28;20017;-78
2021/11/24 04:18:49;;;;;;;1.30;1.00;;;10.40;91.60;;;;;;5032979;28;20033;-78
2021/11/24 04:21:16;;;;;;;6.00;1.67;;;10.50;91.70;;;;;;5029218;28;20045;-79
2021/11/24 04:23:42;;;;;;;2.38;2.03;;;10.50;91.70;;;;;;5031110;28;20033;-75
2021/11/24 04:26:07;;;;;;;4.53;1.70;;;10.40;91.60;;;;;;5031747;28;20025;-79
2021/11/24 04:28:33;;;;;;;2.50;1.27;;;10.50;91.60;;;;;;5031168;28;20032;-78
2021/11/24 04:30:59;;;;;;;3.13;1.38;;;10.50;91.60;;;;;;5030655;28;20025;-78
2021/11/24 04:33:24;;;;;;;2.60;1.67;;;10.50;91.60;;;;;;5032648;28;20048;-79
2021/11/24 04:35:50;;;;;;;2.58;1.50;;;10.60;91.50;;;;;;5027099;28;20341;-79
2021/11/24 04:38:16;;;;;;;3.35;1.30;;;10.60;91.40;;;;;;5031224;28;20029;-79
2021/11/24 04:40:42;;;;;;;2.78;1.30;;;10.70;91.40;;;;;;5030794;28;20049;-78
2021/11/24 04:43:11;;;;;;;4.00;1.73;;;10.70;91.30;;;;;;5027668;28;20465;-78
2021/11/24 04:45:36;;;;;;;2.00;1.20;;;10.80;91.30;;;;;;5032427;28;20025;-74
2021/11/24 04:48:02;;;;;;;1.80;1.40;;;10.70;91.20;;;;;;5028713;28;20029;-77
2021/11/24 04:50:28;;;;;;;6.75;3.05;;;10.80;91.20;;;;;;5031062;28;20048;-77
2021/11/24 04:52:54;;;;;;;2.30;1.00;;;10.80;91.20;;;;;;5031701;28;20397;-77
2021/11/24 04:55:19;;;;;;;4.65;1.50;;;10.80;91.20;;;;;;5029307;28;20588;-77
2021/11/24 04:57:45;;;;;;;3.15;1.45;;;10.80;91.20;;;;;;5018627;28;20061;-77
2021/11/24 05:00:16;;;;;;;3.35;1.50;;;10.80;91.20;;;;;;5028135;28;20030;-77
2021/11/24 05:02:43;;;;;;;1.83;1.20;;;10.90;91.10;;;;;;5030761;28;20498;-76
2021/11/24 05:05:09;;;;;;;2.85;1.20;;;11.00;91.40;;;;;;5023770;28;20021;-77
2021/11/24 05:07:34;;;;;;;4.93;1.33;;;10.90;91.00;;;;;;5025688;28;20500;-78
2021/11/24 05:10:01;;;;;;;2.85;1.45;;;11.00;91.00;;;;;;5025231;28;20029;-78
2021/11/24 05:12:30;;;;;;;2.17;1.30;;;11.00;91.00;;;;;;5026145;28;20029;-78
2021/11/24 05:14:58;;;;;;;3.22;1.40;;;11.00;91.00;;;;;;5023175;28;20473;-77
2021/11/24 05:17:26;;;;;;;4.35;0.85;;;11.00;90.90;;;;;;5030716;28;20032;-77
2021/11/24 05:19:52;;;;;;;4.50;1.67;;;11.00;90.90;;;;;;5026303;28;20473;-77
2021/11/24 05:22:19;;;;;;;8.60;1.35;;;11.00;90.90;;;;;;5025929;28;20473;-77
2021/11/24 05:24:45;;;;;;;2.17;1.20;;;11.00;90.80;;;;;;5030327;28;20079;-77
2021/11/24 05:27:10;;;;;;;3.13;1.60;;;10.90;90.80;;;;;;5031684;28;20145;-78
2021/11/24 05:29:36;;;;;;;3.97;1.10;;;10.90;90.80;;;;;;5027837;28;20686;-78
2021/11/24 05:32:02;;;;;;;3.45;1.40;;;11.00;90.80;;;;;;5030506;28;20491;-77
2021/11/24 05:34:28;;;;;;;1.88;1.25;;;11.00;90.80;;;;;;5031218;28;20040;-78
2021/11/24 05:36:53;;;;;;;3.33;1.23;;;11.00;90.80;;;;;;5029552;28;20030;-78
2021/11/24 05:39:19;;;;;;;3.97;1.40;;;11.00;90.70;;;;;;5030607;28;20071;-88
2021/11/24 05:41:44;;;;;;;2.63;1.38;;;11.00;90.70;;;;;;5025963;28;20096;-84
2021/11/24 05:44:26;;;;;;;1.48;1.25;;;11.00;90.70;;;;;;5021005;28;20064;-83
2021/11/24 05:46:58;;;;;;;3.08;1.38;;;11.00;90.70;;;;;;5019930;28;20041;-85
2021/11/24 05:49:25;;;;;;;2.08;1.13;;;10.90;90.70;;;;;;5030310;28;20026;-77
2021/11/24 05:51:55;;;;;;;5.07;1.23;;;10.90;90.70;;;;;;5027041;28;20041;-78
2021/11/24 05:54:21;;;;;;;1.23;1.00;;;10.90;90.80;;;;;;5031007;28;20033;-73
2021/11/24 05:56:47;;;;;;;3.58;1.10;;;10.90;90.80;;;;;;5028770;28;20048;-77
2021/11/24 05:59:15;;;;;;;2.28;0.98;;;10.90;90.80;;;;;;5027768;28;20021;-76
2021/11/24 06:01:44;;;;;;;3.05;1.05;;;10.90;90.80;;;;;;5028797;28;20135;-75
2021/11/24 06:04:10;;;;;;;1.85;1.35;;;10.80;90.80;;;;;;5027752;28;20025;-76
2021/11/24 06:06:36;;;;;;;1.67;0.80;;;10.80;90.80;;;;;;5027207;28;20421;-78
2021/11/24 06:09:04;;;;;;;2.05;0.88;;;10.80;90.90;;;;;;5028325;28;20100;-78
2021/11/24 06:11:30;;;;;;;2.95;1.55;;;10.80;90.90;;;;;;5029671;28;20032;-77
2021/11/24 06:13:56;;;;;;;1.23;1.10;;;10.80;90.90;;;;;;5028587;28;20018;-79
2021/11/24 06:16:22;;;;;;;1.35;1.02;;;10.70;91.00;;;;;;5030948;28;20034;-78
2021/11/24 06:18:48;;;;;;;0.75;0.75;;;10.70;91.00;;;;;;5026611;28;20033;-71
2021/11/24 06:21:19;;;;;;;3.58;0.68;;;10.70;91.10;;;;;;5026695;28;20045;-73
2021/11/24 06:23:46;;;;;;;0.88;0.88;;;10.60;91.10;;;;;;5023728;28;20029;-74
2021/11/24 06:26:12;;;;;;;0.82;0.82;;;10.60;91.10;;;;;;5024278;28;20034;-74
2021/11/24 06:28:38;;;;;;;1.05;0.70;;;10.60;91.20;;;;;;5026447;28;20033;-75
2021/11/24 06:31:04;;;;;;;1.63;0.60;;;10.50;91.20;;;;;;5022678;28;20034;-75
2021/11/24 06:33:30;;;;;;;1.33;0.82;;;10.50;91.30;;;;;;5021591;28;20030;-75
2021/11/24 06:35:56;;;;;;;5.55;0.70;;;10.50;91.30;;;;;;5027865;28;20028;-80
2021/11/24 06:38:22;;;;;;;1.27;1.15;;;10.50;91.40;;;;;;5024386;28;20037;-75
2021/11/24 06:40:49;;;;;;;0.80;0.80;;;10.40;91.40;;;;;;5023302;28;20050;-70
2021/11/24 06:43:14;;;;;;;0.85;0.50;;;10.40;91.40;;;;;;5026632;28;20398;-73
2021/11/24 06:45:41;;;;;;;1.23;0.88;;;10.30;91.40;;;;;;5027558;28;20033;-71
2021/11/24 06:48:10;;;;;;;1.17;0.98;;;10.30;91.50;;;;;;5031080;28;20040;-75
2021/11/24 06:50:36;;;;;;;2.15;1.10;;;10.40;91.60;;;;;;5031819;28;20025;-75
2021/11/24 06:53:02;;;;;;;0.80;0.43;;;10.30;91.60;;;;;;5033681;28;20099;-76
2021/11/24 06:55:28;;;;;;;0.55;0.52;;;10.30;91.60;;;;;;5032523;28;20025;-76
2021/11/24 06:57:54;;;;;;;1.10;0.82;;;10.30;91.60;;;;;;5032523;28;20060;-76
2021/11/24 07:00:20;;;;;;;1.48;1.17;;;10.30;91.60;;;;;;5028435;28;20040;-75
2021/11/24 07:02:45;;;;;;;0.40;0.40;;;10.30;91.60;;;;;;5025494;28;20106;-75
2021/11/24 07:05:13;;;;;;;1.88;0.95;;;10.30;91.60;;;;;;5031071;28;20049;-76
2021/11/24 07:07:39;;;;;;;4.32;1.30;;;10.30;91.70;;;;;;5032637;28;20045;-75
2021/11/24 07:10:05;;;;;;;0.50;0.50;;;10.30;91.70;;;;;;5032707;28;20045;-76
2021/11/24 07:12:31;;;;;;;1.85;1.15;;;10.20;91.70;;;;;;5018677;28;20553;-76
2021/11/24 07:14:57;;;;;;;2.70;1.15;;;10.30;91.70;;;;;;5031994;28;20029;-76
2021/11/24 07:17:24;;;;;;;1.48;0.90;;;10.30;91.70;;;;;;5030655;28;20025;-77
2021/11/24 07:19:49;;;;;;;2.08;0.68;;;10.30;91.80;;;;;;5025453;28;20058;-76
2021/11/24 07:22:15;;;;;;;4.70;1.33;;;10.40;91.80;;;;;;5017834;28;20076;-76
2021/11/24 07:24:41;;;;;;;3.25;1.30;;;10.30;91.70;;;;;;5032587;28;20036;-76
2021/11/24 07:27:07;;;;;;;3.60;1.38;;;10.40;91.70;;;;;;5032549;28;20128;-77
2021/11/24 07:29:32;;;;;;;3.38;1.35;;;10.40;91.70;;;;;;5032433;28;20061;-80
2021/11/24 07:31:58;;;;;;;3.70;1.38;;;10.50;91.70;;;;;;5033230;28;20056;-78
2021/11/24 07:34:24;;;;;;;5.97;1.40;;;10.40;91.90;;;;;;5029042;28;20041;-79
2021/11/24 07:36:50;;;;;;;2.38;1.48;;;10.50;91.60;;;;;;5016309;28;20061;-77
2021/11/24 07:39:16;;;;;;;3.45;1.70;;;10.60;91.60;;;;;;5028991;28;20026;-79
2021/11/24 07:41:41;;;;;;;1.98;1.23;;;10.50;91.50;;;;;;5025331;28;20406;-76
2021/11/24 07:44:07;;;;;;;3.08;1.45;;;10.60;91.40;;;;;;5028221;28;20079;-77
2021/11/24 07:46:33;;;;;;;2.90;1.50;;;10.60;91.40;;;;;;5027254;28;20384;-76
2021/11/24 07:48:59;;;;;;;5.88;1.42;;;10.70;91.30;;;;;;5027807;28;20043;-77
2021/11/24 07:51:25;;;;;;;6.20;1.60;;;10.70;91.30;;;;;;5026252;28;20033;-77
2021/11/24 07:53:51;;;;;;;4.45;1.30;;;10.70;91.20;;;;;;5015620;28;20049;-78
2021/11/24 07:56:17;;;;;;;2.10;1.50;;;10.70;91.20;;;;;;5027238;28;20488;-76
2021/11/24 07:58:42;;;;;;;0.88;0.85;;;10.70;91.20;;;;;;5021247;28;20101;-76
2021/11/24 08:01:09;;;;;;;1.83;0.82;;;10.70;91.50;;;;;;5032025;28;20037;-79
2021/11/24 08:03:35;;;;;;;1.83;1.35;;;10.70;91.20;;;;;;5038033;28;20033;-76
2021/11/24 08:06:01;;;;;;;3.90;1.50;;;10.70;91.20;;;;;;5024922;28;20029;-77
2021/11/24 08:08:27;;;;;;;4.20;1.45;;;10.70;91.20;;;;;;5030586;28;20461;-77
2021/11/24 08:10:53;;;;;;;1.25;0.90;;;10.70;91.20;;;;;;5023666;28;20072;-76
2021/11/24 08:13:21;;;;;;;1.15;1.05;;;10.70;91.50;;;;;;5017651;28;20060;-76
2021/11/24 08:15:49;;;;;;;2.05;0.90;;;10.70;91.20;;;;;;5032996;28;20067;-77
2021/11/24 08:18:15;;;;;;;1.13;0.80;;;10.70;91.10;;;;;;5025054;28;20021;-77
2021/11/24 08:20:41;;;;;;;2.38;0.95;;;10.70;91.20;;;;;;5025087;28;20042;-77
2021/11/24 08:23:07;;;;;;;2.30;0.88;;;10.70;91.20;;;;;;5028514;28;20029;-76
2021/11/24 08:25:33;;;;;;;2.35;1.17;;;10.60;91.20;;;;;;5031310;28;20032;-77
2021/11/24 08:27:59;;;;;;;1.40;1.30;;;10.60;91.20;;;;;;5031109;28;20370;-76
2021/11/24 08:30:25;;;;;;;2.70;0.90;;;10.60;91.20;;;;;;5029222;28;20112;-77
2021/11/24 08:32:51;;;;;;;1.45;1.25;;;10.60;91.30;;;;;;5017869;28;20042;-77
2021/11/24 08:35:18;;;;;;;2.42;1.35;;;10.60;91.30;;;;;;5025122;28;20041;-77
2021/11/24 08:37:44;;;;;;;0.35;0.35;;;10.60;91.30;;;;;;5028883;28;20489;-77
2021/11/24 08:40:10;;;;;;;0.98;0.88;;;10.60;91.30;;;;;;5032238;28;20079;-77
2021/11/24 08:42:36;;;;;;;3.25;0.77;;;10.50;91.30;;;;;;5027874;28;20029;-77
2021/11/24 08:45:03;;;;;;;0.73;0.68;;;10.50;91.30;;;;;;5024442;28;20033;-77
2021/11/24 08:47:29;;;;;;;0.65;0.65;;;10.50;91.30;;;;;;5022134;28;20033;-76
2021/11/24 08:49:55;;;;;;;0.98;0.70;;;10.50;91.30;;;;;;5025955;28;20075;-77
2021/11/24 08:52:21;;;;;;;1.10;0.75;;;10.50;91.40;;;;;;5024515;28;20064;-76
2021/11/24 08:54:47;;;;;;;3.55;0.95;;;10.50;91.70;;;;;;5016641;28;20038;-77
2021/11/24 08:57:14;;;;;;;2.92;0.85;;;10.40;91.40;;;;;;5020491;28;20037;-77
2021/11/24 08:59:39;;;;;;;4.03;0.98;;;10.50;91.50;;;;;;5023539;28;20025;-76
2021/11/24 09:02:06;;;;;;;0.55;0.55;;;10.50;91.50;;;;;;5017212;28;20512;-77
2021/11/24 09:04:33;;;;;;;0.32;0.32;;;10.50;91.50;;;;;;5014846;28;20557;-77
2021/11/24 09:06:58;;;;;;;0.45;0.45;;;10.40;91.50;;;;;;5014735;28;20033;-77
2021/11/24 09:09:24;;;;;;;2.47;1.40;;;10.50;91.50;;;;;;5017265;28;20022;-79
2021/11/24 09:11:50;;;;;;;3.83;1.40;;;10.50;91.50;;;;;;5023569;28;20123;-80
2021/11/24 09:14:16;;;;;;;2.05;1.23;;;10.50;91.50;;;;;;5022410;28;20132;-79
2021/11/24 09:16:41;;;;;;;2.38;1.15;;;10.50;91.50;;;;;;5027070;28;20029;-78
2021/11/24 09:19:07;;;;;;;0.88;0.88;;;10.60;91.50;;;;;;5016713;28;20032;-77
2021/11/24 09:21:32;;;;;;;1.85;1.38;;;10.50;91.40;;;;;;5019827;28;20063;-77
2021/11/24 09:24:04;;;;;;;6.55;1.55;;;10.50;91.40;;;;;;5029000;28;20064;-77
2021/11/24 09:29:04;;;;;;;3.03;1.73;;;10.60;91.40;;;;;;5026769;28;20049;-77
2021/11/24 09:31:30;;;;;;;3.47;1.70;;;10.60;91.30;;;;;;5021972;28;20029;-77
2021/11/24 09:33:56;;;;;;;3.95;1.00;;;10.60;91.30;;;;;;5018994;28;20033;-77
2021/11/24 09:36:21;;;;;;;4.60;1.42;;;10.70;91.30;;;;;;5026411;28;20123;-77
2021/11/24 09:38:47;;;;;;;8.00;1.60;;;10.70;91.30;;;;;;5014540;28;20038;-80
2021/11/24 09:41:13;;;;;;;3.63;1.30;;;10.70;91.30;;;;;;5025293;28;20088;-75
2021/11/24 09:43:47;;;;;;;6.63;1.35;;;10.70;91.30;;;;;;5020961;28;20048;-77
2021/11/24 09:46:16;;;;;;;3.53;1.70;;;10.70;91.30;;;;;;5017129;28;20037;-80
2021/11/24 09:48:44;;;;;;;0.90;0.52;;;10.70;91.30;;;;;;5026718;28;20405;-77
2021/11/24 09:51:11;;;;;;;0.65;0.65;;;10.70;91.30;;;;;;5027786;28;20068;-78
2021/11/24 09:53:38;;;;;;;0.70;0.70;;;10.70;91.20;;;;;;5030019;28;20427;-78
2021/11/24 09:56:04;;;;;;;2.40;1.08;;;10.70;91.20;;;;;;5025522;28;20056;-77
2021/11/24 09:58:32;;;;;;;1.00;0.88;;;10.70;91.20;;;;;;5027771;28;20477;-78
2021/11/24 10:00:58;;;;;;;2.92;1.05;;;10.60;91.20;;;;;;5030847;28;20091;-77
2021/11/24 10:03:25;;;;;;;0.90;0.90;;;10.70;91.30;;;;;;5032655;28;20041;-77
2021/11/24 10:05:51;;;;;;;5.50;1.27;;;10.60;91.30;;;;;;5029016;28;20551;-77
2021/11/24 10:08:17;;;;;;;0.82;0.82;;;10.70;91.40;;;;;;5023922;28;20026;-77
2021/11/24 10:10:43;;;;;;;0.68;0.68;;;10.70;91.40;;;;;;5017575;28;20033;-78
2021/11/24 10:13:10;;;;;;;1.73;0.60;;;10.70;91.40;;;;;;5020109;28;20080;-78
2021/11/24 10:15:48;;;;;;;0.60;0.60;;;10.70;91.40;;;;;;5023707;28;20033;-77
2021/11/24 10:18:19;;;;;;;0.45;0.45;;;10.70;91.40;;;;;;5025023;28;20092;-78
2021/11/24 10:20:52;;;;;;;1.20;0.93;;;10.70;91.40;;;;;;5027881;28;20045;-78
2021/11/24 10:23:33;;;;;;;2.03;1.13;;;10.70;91.40;;;;;;5031092;28;20037;-73
2021/11/24 10:26:18;;;;;;;4.07;1.15;;;10.70;91.40;;;;;;5023842;28;20042;-79
2021/11/24 10:28:58;;;;;;;2.97;0.60;;;10.70;91.40;;;;;;5025369;28;20444;-78
2021/11/24 10:31:31;;;;;;;0.60;0.60;;;10.60;91.30;;;;;;5026810;28;20136;-83
2021/11/24 10:33:57;;;;;;;0.60;0.60;;;10.70;91.40;;;;;;5027704;28;20091;-76
2021/11/24 10:36:24;;;;;;;0.50;0.50;;;10.70;91.30;;;;;;5025926;28;20280;-78
2021/11/24 10:38:52;;;;;;;0.40;0.35;;;10.70;91.40;;;;;;5030598;28;20033;-77
2021/11/24 10:41:39;;;;;;;2.05;0.88;;;10.60;91.40;;;;;;5028333;28;20144;-78
2021/11/24 10:44:05;;;;;;;0.85;0.63;;;10.60;91.40;;;;;;5031957;28;20026;-77
2021/11/24 10:46:33;;;;;;;0.57;0.50;;;10.70;91.40;;;;;;5028423;28;20033;-77
2021/11/24 10:49:10;;;;;;;1.25;0.85;;;10.60;91.40;;;;;;5030541;28;20032;-77
2021/11/24 10:51:41;;;;;;;1.67;1.17;;;10.60;91.40;;;;;;5031208;28;20473;-77
2021/11/24 10:54:18;;;;;;;0.50;0.50;;;10.60;91.40;;;;;;5030070;28;20030;-77
2021/11/24 10:57:05;;;;;;;2.13;1.25;;;10.70;91.50;;;;;;5031405;28;20037;-77
2021/11/24 10:59:34;;;;;;;0.30;0.30;;;10.70;91.40;;;;;;5030289;28;20037;-77
2021/11/24 11:02:29;;;;;;;0.68;0.68;;;10.60;91.40;;;;;;5021930;28;20448;-78
2021/11/24 11:05:06;;;;;;;3.47;0.85;;;10.70;91.50;;;;;;5019751;28;20069;-79
2021/11/24 11:07:35;;;;;;;1.10;0.73;;;10.60;91.50;;;;;;5026179;28;20357;-78
2021/11/24 11:10:09;;;;;;;0.93;0.70;;;10.60;91.40;;;;;;5032232;28;20045;-77
2021/11/24 11:12:37;;;;;;;0.77;0.60;;;10.60;91.40;;;;;;5023321;28;20029;-70
2021/11/24 11:15:13;;;;;;;1.92;0.73;;;10.60;91.40;;;;;;5031320;28;20603;-80
2021/11/24 11:18:00;;;;;;;0.65;0.65;;;10.60;91.40;;;;;;5033628;28;20100;-79
2021/11/24 11:20:29;;;;;;;0.80;0.80;;;10.50;91.40;;;;;;5033706;28;20501;-80
2021/11/24 11:23:16;;;;;;;0.85;0.60;;;10.50;91.40;;;;;;5032119;28;20065;-80
2021/11/24 11:25:45;;;;;;;0.60;0.52;;;10.50;91.50;;;;;;5033349;28;20033;-80
2021/11/24 11:28:11;;;;;;;1.80;1.13;;;10.50;91.50;;;;;;5034467;28;20443;-80
2021/11/24 11:30:41;;;;;;;0.88;0.82;;;10.60;91.50;;;;;;5031178;28;20497;-82
2021/11/24 11:33:08;;;;;;;0.30;0.30;;;10.50;91.50;;;;;;5031075;28;20029;-79
2021/11/24 11:35:34;;;;;;;1.95;0.77;;;10.60;91.50;;;;;;5029876;28;20120;-80
2021/11/24 11:38:00;;;;;;;1.80;0.90;;;10.60;91.50;;;;;;5028694;28;20149;-81
2021/11/24 11:40:27;;;;;;;1.48;0.60;;;10.60;91.50;;;;;;5032832;28;20056;-82
2021/11/24 11:42:57;;;;;;;0.70;0.60;;;10.60;91.50;;;;;;5029124;28;20469;-82
2021/11/24 11:45:22;;;;;;;1.20;0.90;;;10.60;91.50;;;;;;5031510;28;20033;-82
2021/11/24 11:47:56;;;;;;;1.08;0.70;;;10.60;91.40;;;;;;5025682;28;20040;-79
2021/11/24 11:50:40;;;;;;;;;;;10.60;91.40;;;;;;5027051;28;20046;-76
2021/11/24 11:53:13;;;;;;;4.10;1.50;;;10.60;91.30;;;;;;5029111;28;20357;-76
2021/11/24 11:55:38;;;;;;;1.45;1.05;;;10.60;91.20;;;;;;5032492;28;20056;-76
2021/11/24 11:58:23;;;;;;;1.35;0.65;;;10.60;91.40;;;;;;5028926;28;20099;-76
2021/11/24 12:01:05;;;;;;;1.45;0.88;;;10.60;91.50;;;;;;5028353;28;20104;-76
2021/11/24 12:03:54;;;;;;;2.50;0.95;;;10.60;91.50;;;;;;5044324;28;20111;-76
2021/11/24 12:06:23;;;;;;;1.33;1.10;;;10.50;91.50;;;;;;5017673;28;20033;-76
2021/11/24 12:09:06;;;;;;;0.38;0.38;;;10.60;91.40;;;;;;5029482;28;20033;-76
2021/11/24 12:12:06;;;;;;;0.73;0.73;;;10.50;91.40;;;;;;5019014;28;20034;-75
2021/11/24 12:14:53;;;;;;;1.55;0.77;;;10.50;91.40;;;;;;5029269;28;20053;-76
2021/11/24 12:17:40;;;;;;;2.05;0.95;;;10.60;91.50;;;;;;5025613;28;20033;-76
2021/11/24 12:20:12;;;;;;;2.95;1.85;;;10.60;91.40;;;;;;5024841;28;20033;-76
2021/11/24 12:22:46;;;;;;;1.30;0.93;;;10.60;91.40;;;;;;5016319;28;20038;-76
2021/11/24 12:25:18;;;;;;;0.95;0.38;;;10.60;91.50;;;;;;5022161;28;20026;-76
2021/11/24 12:27:50;;;;;;;0.52;0.52;;;10.60;91.50;;;;;;5026266;28;20037;-76
2021/11/24 12:30:42;;;;;;;3.50;1.55;;;10.60;91.50;;;;;;5027304;28;20466;-76
2021/11/24 12:33:14;;;;;;;2.10;1.25;;;10.70;91.40;;;;;;5018676;28;20037;-81
2021/11/24 12:36:08;;;;;;;;;;;;;;;;;;;;;
2021/11/24 12:38:39;;;;;;;;;;;10.70;91.30;;;;;;5033045;28;20041;-80
2021/11/24 12:41:08;;;;;;;1.10;1.00;;;10.70;91.30;;;;;;5025905;28;20008;-81
2021/11/24 12:43:38;;;;;;;1.20;0.90;;;10.70;91.30;;;;;;5025653;28;20095;-81
2021/11/24 12:46:04;;;;;;;1.15;0.75;;;10.70;91.30;;;;;;5028305;28;20489;-82
2021/11/24 12:48:46;;;;;;;1.40;1.02;;;10.60;91.30;;;;;;5025520;28;20056;-81
2021/11/24 12:51:17;;;;;;;0.40;0.40;;;10.60;91.30;;;;;;5025640;28;20033;-81
2021/11/24 12:53:58;;;;;;;0.73;0.73;;;10.60;91.30;;;;;;5023892;28;20033;-82
2021/11/24 12:56:29;;;;;;;1.85;1.45;;;10.60;91.30;;;;;;5028014;28;20489;-78